sensor_id;sensor_type;location;lat;lon;timestamp;pressure;altitude;pressure_sealevel;temperature;humidity
76726;BME280;65651;53.154;17.916;2024-03-23T00:55:37;100124.44;;;7.69;88.92
76726;BME280;65651;53.154;17.916;2024-03-23T00:58:03;100131.63;;;7.69;89.21
76726;BME280;65651;53.154;17.916;2024-03-23T01:00:30;100126.02;;;7.70;89.09
76726;BME280;65651;53.154;17.916;2024-03-23T01:02:57;100130.20;;;7.70;89.25
76726;BME280;65651;53.154;17.916;2024-03-23T01:05:24;100128.27;;;7.70;89.55
76726;BME280;65651;53.154;17.916;2024-03-23T01:07:51;100124.73;;;7.70;89.24
76726;BME280;65651;53.154;17.916;2024-03-23T01:10:20;100126.94;;;7.67;89.46
76726;BME280;65651;53.154;17.916;2024-03-23T01:12:46;100133.99;;;7.68;89.26
76726;BME280;65651;53.154;17.916;2024-03-23T01:15:15;100133.37;;;7.67;89.49
76726;BME280;65651;53.154;17.916;2024-03-23T01:17:42;100135.30;;;7.68;89.46
76726;BME280;65651;53.154;17.916;2024-03-23T01:20:09;100131.42;;;7.67;89.35
76726;BME280;65651;53.154;17.916;2024-03-23T01:22:37;100132.70;;;7.67;89.58
76726;BME280;65651;53.154;17.916;2024-03-23T01:25:04;100131.69;;;7.66;89.67
76726;BME280;65651;53.154;17.916;2024-03-23T01:27:31;100133.42;;;7.65;89.53
76726;BME280;65651;53.154;17.916;2024-03-23T01:29:58;100130.04;;;7.63;89.45
76726;BME280;65651;53.154;17.916;2024-03-23T01:32:24;100125.19;;;7.61;89.40
76726;BME280;65651;53.154;17.916;2024-03-23T01:34:53;100122.72;;;7.61;89.45
76726;BME280;65651;53.154;17.916;2024-03-23T01:37:20;100127.63;;;7.60;89.58
76726;BME280;65651;53.154;17.916;2024-03-23T01:39:46;100124.33;;;7.59;89.63
76726;BME280;65651;53.154;17.916;2024-03-23T01:42:13;100121.90;;;7.58;89.68
76726;BME280;65651;53.154;17.916;2024-03-23T01:44:40;100115.90;;;7.57;89.93
76726;BME280;65651;53.154;17.916;2024-03-23T01:47:07;100111.27;;;7.53;89.53
76726;BME280;65651;53.154;17.916;2024-03-23T01:49:34;100119.80;;;7.56;89.80
76726;BME280;65651;53.154;17.916;2024-03-23T01:52:02;100120.05;;;7.54;89.75
76726;BME280;65651;53.154;17.916;2024-03-23T01:54:30;100120.90;;;7.53;89.74
76726;BME280;65651;53.154;17.916;2024-03-23T01:56:58;100120.55;;;7.51;89.78
76726;BME280;65651;53.154;17.916;2024-03-23T01:59:26;100118.91;;;7.47;89.76
76726;BME280;65651;53.154;17.916;2024-03-23T02:01:52;100119.55;;;7.48;89.82
76726;BME280;65651;53.154;17.916;2024-03-23T02:04:19;100117.83;;;7.45;89.91
76726;BME280;65651;53.154;17.916;2024-03-23T02:06:46;100109.31;;;7.41;89.79
76726;BME280;65651;53.154;17.916;2024-03-23T02:09:13;100108.67;;;7.38;89.70
76726;BME280;65651;53.154;17.916;2024-03-23T02:11:40;100110.09;;;7.36;89.58
76726;BME280;65651;53.154;17.916;2024-03-23T02:14:07;100107.65;;;7.34;89.34
76726;BME280;65651;53.154;17.916;2024-03-23T02:16:34;100104.20;;;7.33;89.41
76726;BME280;65651;53.154;17.916;2024-03-23T02:19:00;100099.33;;;7.31;89.49
76726;BME280;65651;53.154;17.916;2024-03-23T02:21:27;100094.64;;;7.28;89.27
76726;BME280;65651;53.154;17.916;2024-03-23T02:23:59;100091.88;;;7.28;89.25
76726;BME280;65651;53.154;17.916;2024-03-23T02:26:26;100088.55;;;7.27;89.20
76726;BME280;65651;53.154;17.916;2024-03-23T02:28:53;100089.67;;;7.27;89.47
76726;BME280;65651;53.154;17.916;2024-03-23T02:31:27;100086.98;;;7.27;89.27
76726;BME280;65651;53.154;17.916;2024-03-23T02:33:54;100082.41;;;7.26;89.37
76726;BME280;65651;53.154;17.916;2024-03-23T02:36:20;100079.05;;;7.26;89.44
76726;BME280;65651;53.154;17.916;2024-03-23T02:38:47;100074.55;;;7.23;89.61
76726;BME280;65651;53.154;17.916;2024-03-23T02:41:14;100071.69;;;7.25;89.49
76726;BME280;65651;53.154;17.916;2024-03-23T02:43:41;100068.68;;;7.24;89.54
76726;BME280;65651;53.154;17.916;2024-03-23T02:46:09;100064.06;;;7.24;89.51
76726;BME280;65651;53.154;17.916;2024-03-23T02:48:36;100066.89;;;7.22;89.69
76726;BME280;65651;53.154;17.916;2024-03-23T02:51:03;100065.38;;;7.19;89.84
76726;BME280;65651;53.154;17.916;2024-03-23T02:53:30;100061.07;;;7.16;89.61
76726;BME280;65651;53.154;17.916;2024-03-23T02:55:59;100056.25;;;7.12;89.99
76726;BME280;65651;53.154;17.916;2024-03-23T02:58:26;100049.84;;;7.10;90.04
76726;BME280;65651;53.154;17.916;2024-03-23T03:00:55;100040.85;;;7.06;89.82
76726;BME280;65651;53.154;17.916;2024-03-23T03:03:22;100038.18;;;7.05;89.90
76726;BME280;65651;53.154;17.916;2024-03-23T03:05:55;100035.38;;;7.04;89.99
76726;BME280;65651;53.154;17.916;2024-03-23T03:08:22;100035.48;;;7.03;90.28
76726;BME280;65651;53.154;17.916;2024-03-23T03:10:49;100036.90;;;7.03;90.33
76726;BME280;65651;53.154;17.916;2024-03-23T03:13:16;100029.82;;;7.02;90.13
76726;BME280;65651;53.154;17.916;2024-03-23T03:15:43;100025.94;;;7.02;90.10
76726;BME280;65651;53.154;17.916;2024-03-23T03:18:10;100028.98;;;7.02;90.31
76726;BME280;65651;53.154;17.916;2024-03-23T03:20:41;100033.09;;;7.02;90.25
76726;BME280;65651;53.154;17.916;2024-03-23T03:23:08;100028.11;;;7.02;90.40
76726;BME280;65651;53.154;17.916;2024-03-23T03:25:37;100025.85;;;7.00;90.11
76726;BME280;65651;53.154;17.916;2024-03-23T03:28:04;100020.14;;;6.94;90.32
76726;BME280;65651;53.154;17.916;2024-03-23T03:30:31;100027.73;;;6.99;90.45
76726;BME280;65651;53.154;17.916;2024-03-23T03:33:00;100021.65;;;6.99;90.33
76726;BME280;65651;53.154;17.916;2024-03-23T03:35:28;100021.27;;;7.00;90.46
76726;BME280;65651;53.154;17.916;2024-03-23T03:37:56;100021.95;;;7.00;90.57
76726;BME280;65651;53.154;17.916;2024-03-23T03:40:23;100015.40;;;7.00;90.64
76726;BME280;65651;53.154;17.916;2024-03-23T03:42:51;100014.38;;;6.97;90.42
76726;BME280;65651;53.154;17.916;2024-03-23T03:45:17;100021.45;;;6.99;90.52
76726;BME280;65651;53.154;17.916;2024-03-23T03:47:44;100022.17;;;6.99;90.94
76726;BME280;65651;53.154;17.916;2024-03-23T03:50:11;100022.25;;;6.99;90.57
76726;BME280;65651;53.154;17.916;2024-03-23T03:52:38;100016.42;;;6.98;90.94
76726;BME280;65651;53.154;17.916;2024-03-23T03:55:12;100013.24;;;6.98;90.62
76726;BME280;65651;53.154;17.916;2024-03-23T03:57:39;100014.66;;;6.96;90.98
76726;BME280;65651;53.154;17.916;2024-03-23T04:00:07;100014.55;;;6.95;90.78
76726;BME280;65651;53.154;17.916;2024-03-23T04:02:38;100019.50;;;6.94;91.10
76726;BME280;65651;53.154;17.916;2024-03-23T04:05:05;100016.64;;;6.92;90.87
76726;BME280;65651;53.154;17.916;2024-03-23T04:07:32;100013.52;;;6.91;90.64
76726;BME280;65651;53.154;17.916;2024-03-23T04:09:59;100006.84;;;6.90;90.74
76726;BME280;65651;53.154;17.916;2024-03-23T04:12:30;100000.33;;;6.89;90.50
76726;BME280;65651;53.154;17.916;2024-03-23T04:14:57;100003.36;;;6.85;90.77
76726;BME280;65651;53.154;17.916;2024-03-23T04:17:31;100003.23;;;6.82;90.77
76726;BME280;65651;53.154;17.916;2024-03-23T04:20:01;100012.35;;;6.80;90.47
76726;BME280;65651;53.154;17.916;2024-03-23T04:22:29;100009.82;;;6.76;90.67
76726;BME280;65651;53.154;17.916;2024-03-23T04:24:56;100007.46;;;6.73;90.44
76726;BME280;65651;53.154;17.916;2024-03-23T04:27:24;99998.29;;;6.70;90.57
76726;BME280;65651;53.154;17.916;2024-03-23T04:29:52;99990.83;;;6.67;90.43
76726;BME280;65651;53.154;17.916;2024-03-23T04:32:21;99985.34;;;6.65;90.44
76726;BME280;65651;53.154;17.916;2024-03-23T04:34:49;99989.46;;;6.63;90.57
76726;BME280;65651;53.154;17.916;2024-03-23T04:37:16;99996.30;;;6.62;90.20
76726;BME280;65651;53.154;17.916;2024-03-23T04:39:43;99997.85;;;6.61;90.27
76726;BME280;65651;53.154;17.916;2024-03-23T04:42:09;99995.48;;;6.61;90.21
76726;BME280;65651;53.154;17.916;2024-03-23T04:44:36;99994.04;;;6.61;90.55
76726;BME280;65651;53.154;17.916;2024-03-23T04:47:06;99988.24;;;6.60;90.81
76726;BME280;65651;53.154;17.916;2024-03-23T04:49:39;99990.75;;;6.60;90.09
76726;BME280;65651;53.154;17.916;2024-03-23T04:52:06;99995.96;;;6.60;90.24
76726;BME280;65651;53.154;17.916;2024-03-23T04:54:33;99986.79;;;6.59;90.46
76726;BME280;65651;53.154;17.916;2024-03-23T04:57:02;99979.04;;;6.60;90.65
76726;BME280;65651;53.154;17.916;2024-03-23T04:59:29;99972.89;;;6.56;90.66
76726;BME280;65651;53.154;17.916;2024-03-23T05:01:56;99976.84;;;6.58;90.54
76726;BME280;65651;53.154;17.916;2024-03-23T05:04:30;99980.40;;;6.59;90.97
76726;BME280;65651;53.154;17.916;2024-03-23T05:06:59;99974.23;;;6.58;90.63
76726;BME280;65651;53.154;17.916;2024-03-23T05:09:26;99969.77;;;6.58;91.07
76726;BME280;65651;53.154;17.916;2024-03-23T05:11:56;99966.30;;;6.59;90.78
76726;BME280;65651;53.154;17.916;2024-03-23T05:14:23;99962.63;;;6.60;90.72
76726;BME280;65651;53.154;17.916;2024-03-23T05:16:50;99966.14;;;6.60;90.62
76726;BME280;65651;53.154;17.916;2024-03-23T05:19:17;99964.17;;;6.60;90.55
76726;BME280;65651;53.154;17.916;2024-03-23T05:21:46;99960.80;;;6.60;90.85
76726;BME280;65651;53.154;17.916;2024-03-23T05:24:16;99955.76;;;6.61;90.97
76726;BME280;65651;53.154;17.916;2024-03-23T05:26:43;99953.80;;;6.62;90.66
76726;BME280;65651;53.154;17.916;2024-03-23T05:29:09;99951.44;;;6.65;90.84
76726;BME280;65651;53.154;17.916;2024-03-23T05:31:43;99950.27;;;6.64;91.01
76726;BME280;65651;53.154;17.916;2024-03-23T05:34:09;99945.14;;;6.64;90.70
76726;BME280;65651;53.154;17.916;2024-03-23T05:36:36;99940.06;;;6.67;91.16
76726;BME280;65651;53.154;17.916;2024-03-23T05:39:03;99936.73;;;6.68;90.97
76726;BME280;65651;53.154;17.916;2024-03-23T05:41:33;99930.27;;;6.68;91.11
76726;BME280;65651;53.154;17.916;2024-03-23T05:44:02;99920.45;;;6.68;90.93
76726;BME280;65651;53.154;17.916;2024-03-23T05:46:29;99904.98;;;6.72;90.88
76726;BME280;65651;53.154;17.916;2024-03-23T05:49:01;99887.82;;;6.80;90.79
76726;BME280;65651;53.154;17.916;2024-03-23T05:51:29;99893.71;;;6.92;90.81
76726;BME280;65651;53.154;17.916;2024-03-23T05:53:55;99898.74;;;7.05;90.98
76726;BME280;65651;53.154;17.916;2024-03-23T05:56:25;99895.87;;;7.18;90.56
76726;BME280;65651;53.154;17.916;2024-03-23T05:58:52;99877.75;;;7.27;90.43
76726;BME280;65651;53.154;17.916;2024-03-23T06:01:19;99870.45;;;7.39;90.52
76726;BME280;65651;53.154;17.916;2024-03-23T06:03:46;99882.36;;;7.50;90.54
76726;BME280;65651;53.154;17.916;2024-03-23T06:06:16;99887.36;;;7.54;90.56
76726;BME280;65651;53.154;17.916;2024-03-23T06:08:42;99893.65;;;7.54;90.48
76726;BME280;65651;53.154;17.916;2024-03-23T06:11:09;99897.39;;;7.52;90.59
76726;BME280;65651;53.154;17.916;2024-03-23T06:13:36;99891.98;;;7.49;90.40
76726;BME280;65651;53.154;17.916;2024-03-23T06:16:03;99890.31;;;7.46;90.07
76726;BME280;65651;53.154;17.916;2024-03-23T06:18:30;99882.59;;;7.43;90.16
76726;BME280;65651;53.154;17.916;2024-03-23T06:20:56;99878.95;;;7.40;90.07
76726;BME280;65651;53.154;17.916;2024-03-23T06:23:23;99876.95;;;7.38;90.35
76726;BME280;65651;53.154;17.916;2024-03-23T06:25:50;99877.06;;;7.33;89.84
76726;BME280;65651;53.154;17.916;2024-03-23T06:28:19;99879.86;;;7.26;90.19
76726;BME280;65651;53.154;17.916;2024-03-23T06:30:47;99883.46;;;7.23;90.00
76726;BME280;65651;53.154;17.916;2024-03-23T06:33:14;99891.14;;;7.23;89.96
76726;BME280;65651;53.154;17.916;2024-03-23T06:35:41;99891.38;;;7.23;89.96
76726;BME280;65651;53.154;17.916;2024-03-23T06:38:08;99894.35;;;7.23;89.98
76726;BME280;65651;53.154;17.916;2024-03-23T06:40:36;99896.95;;;7.21;90.38
76726;BME280;65651;53.154;17.916;2024-03-23T06:43:02;99892.61;;;7.19;90.34
76726;BME280;65651;53.154;17.916;2024-03-23T06:45:30;99892.45;;;7.19;90.29
76726;BME280;65651;53.154;17.916;2024-03-23T06:47:58;99892.16;;;7.18;90.19
76726;BME280;65651;53.154;17.916;2024-03-23T06:50:25;99892.38;;;7.18;90.11
76726;BME280;65651;53.154;17.916;2024-03-23T06:52:52;99891.16;;;7.17;90.23
76726;BME280;65651;53.154;17.916;2024-03-23T06:55:21;99885.39;;;7.16;90.09
76726;BME280;65651;53.154;17.916;2024-03-23T06:57:48;99887.59;;;7.16;90.03
76726;BME280;65651;53.154;17.916;2024-03-23T07:00:17;99884.19;;;7.16;90.29
76726;BME280;65651;53.154;17.916;2024-03-23T07:02:44;99888.20;;;7.17;90.21
76726;BME280;65651;53.154;17.916;2024-03-23T07:05:11;99887.36;;;7.16;90.38
76726;BME280;65651;53.154;17.916;2024-03-23T07:07:38;99891.29;;;7.18;90.19
76726;BME280;65651;53.154;17.916;2024-03-23T07:10:06;99892.41;;;7.19;90.73
76726;BME280;65651;53.154;17.916;2024-03-23T07:12:33;99900.53;;;7.20;90.42
76726;BME280;65651;53.154;17.916;2024-03-23T07:14:59;99901.34;;;7.21;90.46
76726;BME280;65651;53.154;17.916;2024-03-23T07:17:29;99897.76;;;7.21;90.34
76726;BME280;65651;53.154;17.916;2024-03-23T07:20:02;99881.23;;;7.21;90.56
76726;BME280;65651;53.154;17.916;2024-03-23T07:22:39;99870.55;;;7.18;90.25
76726;BME280;65651;53.154;17.916;2024-03-23T07:25:13;99875.64;;;7.21;90.42
76726;BME280;65651;53.154;17.916;2024-03-23T07:28:00;99878.35;;;7.21;90.13
76726;BME280;65651;53.154;17.916;2024-03-23T07:30:41;99878.30;;;7.18;90.22
76726;BME280;65651;53.154;17.916;2024-03-23T07:33:15;99869.02;;;7.22;90.27
76726;BME280;65651;53.154;17.916;2024-03-23T07:35:51;99861.77;;;7.29;90.24
76726;BME280;65651;53.154;17.916;2024-03-23T07:38:21;99863.58;;;7.36;90.35
76726;BME280;65651;53.154;17.916;2024-03-23T07:40:49;99864.23;;;7.36;90.23
76726;BME280;65651;53.154;17.916;2024-03-23T07:43:22;99864.77;;;7.37;90.06
76726;BME280;65651;53.154;17.916;2024-03-23T07:45:52;99866.95;;;7.38;90.03
76726;BME280;65651;53.154;17.916;2024-03-23T07:48:22;99863.89;;;7.40;90.11
76726;BME280;65651;53.154;17.916;2024-03-23T07:53:36;99863.58;;;7.38;90.40
76726;BME280;65651;53.154;17.916;2024-03-23T07:56:09;99857.92;;;7.31;90.28
76726;BME280;65651;53.154;17.916;2024-03-23T07:58:41;99856.20;;;7.17;89.96
76726;BME280;65651;53.154;17.916;2024-03-23T08:01:13;99856.80;;;7.00;89.61
76726;BME280;65651;53.154;17.916;2024-03-23T08:03:46;99846.02;;;6.83;89.37
76726;BME280;65651;53.154;17.916;2024-03-23T08:06:18;99845.63;;;6.73;89.81
76726;BME280;65651;53.154;17.916;2024-03-23T08:08:57;99834.38;;;6.66;89.22
76726;BME280;65651;53.154;17.916;2024-03-23T08:11:29;99835.39;;;6.61;89.67
76726;BME280;65651;53.154;17.916;2024-03-23T08:13:56;99833.73;;;6.55;89.74
76726;BME280;65651;53.154;17.916;2024-03-23T08:16:28;99824.72;;;6.53;89.29
76726;BME280;65651;53.154;17.916;2024-03-23T08:18:55;99815.21;;;6.48;89.51
76726;BME280;65651;53.154;17.916;2024-03-23T08:21:25;99825.05;;;6.45;89.73
76726;BME280;65651;53.154;17.916;2024-03-23T08:23:53;99816.36;;;6.42;89.41
76726;BME280;65651;53.154;17.916;2024-03-23T08:26:20;99820.27;;;6.41;89.50
76726;BME280;65651;53.154;17.916;2024-03-23T08:28:47;99818.08;;;6.37;89.73
76726;BME280;65651;53.154;17.916;2024-03-23T08:31:14;99813.10;;;6.37;89.45
76726;BME280;65651;53.154;17.916;2024-03-23T08:33:41;99809.55;;;6.37;89.35
76726;BME280;65651;53.154;17.916;2024-03-23T08:36:10;99807.89;;;6.38;89.41
76726;BME280;65651;53.154;17.916;2024-03-23T08:38:40;99806.78;;;6.40;89.27
76726;BME280;65651;53.154;17.916;2024-03-23T08:41:08;99803.13;;;6.41;89.62
76726;BME280;65651;53.154;17.916;2024-03-23T08:43:39;99806.77;;;6.42;89.61
76726;BME280;65651;53.154;17.916;2024-03-23T08:46:11;99815.59;;;6.39;89.66
76726;BME280;65651;53.154;17.916;2024-03-23T08:48:40;99820.75;;;6.37;89.67
76726;BME280;65651;53.154;17.916;2024-03-23T08:51:12;99820.90;;;6.36;89.85
76726;BME280;65651;53.154;17.916;2024-03-23T08:53:40;99810.59;;;6.37;89.47
76726;BME280;65651;53.154;17.916;2024-03-23T08:56:09;99804.63;;;6.42;89.58
76726;BME280;65651;53.154;17.916;2024-03-23T08:58:37;99797.58;;;6.45;89.38
76726;BME280;65651;53.154;17.916;2024-03-23T09:01:09;99798.39;;;6.42;89.56
76726;BME280;65651;53.154;17.916;2024-03-23T09:03:37;99790.04;;;6.38;89.43
76726;BME280;65651;53.154;17.916;2024-03-23T09:06:08;99779.39;;;6.39;89.34
76726;BME280;65651;53.154;17.916;2024-03-23T09:08:36;99765.88;;;6.49;89.57
76726;BME280;65651;53.154;17.916;2024-03-23T09:11:04;99756.42;;;6.57;89.42
76726;BME280;65651;53.154;17.916;2024-03-23T09:13:35;99757.66;;;6.62;89.30
76726;BME280;65651;53.154;17.916;2024-03-23T09:16:04;99756.45;;;6.64;89.49
76726;BME280;65651;53.154;17.916;2024-03-23T09:18:33;99748.54;;;6.63;89.18
76726;BME280;65651;53.154;17.916;2024-03-23T09:21:11;99758.09;;;6.60;88.67
76726;BME280;65651;53.154;17.916;2024-03-23T09:23:38;99761.86;;;6.50;88.38
76726;BME280;65651;53.154;17.916;2024-03-23T09:26:11;99758.68;;;6.44;88.19
76726;BME280;65651;53.154;17.916;2024-03-23T09:28:43;99751.36;;;6.38;88.01
76726;BME280;65651;53.154;17.916;2024-03-23T09:31:13;99749.92;;;6.36;88.55
76726;BME280;65651;53.154;17.916;2024-03-23T09:33:44;99744.64;;;6.39;88.31
76726;BME280;65651;53.154;17.916;2024-03-23T09:36:13;99733.14;;;6.44;88.00
76726;BME280;65651;53.154;17.916;2024-03-23T09:38:41;99723.88;;;6.48;88.28
76726;BME280;65651;53.154;17.916;2024-03-23T09:41:41;99716.84;;;6.57;87.95
76726;BME280;65651;53.154;17.916;2024-03-23T09:44:15;99719.78;;;6.69;87.97
76726;BME280;65651;53.154;17.916;2024-03-23T09:46:43;99720.45;;;6.73;87.59
76726;BME280;65651;53.154;17.916;2024-03-23T09:49:10;99722.20;;;6.74;88.02
76726;BME280;65651;53.154;17.916;2024-03-23T09:51:37;99719.33;;;6.72;87.44
76726;BME280;65651;53.154;17.916;2024-03-23T09:54:04;99708.10;;;6.68;87.44
76726;BME280;65651;53.154;17.916;2024-03-23T09:56:31;99712.63;;;6.67;87.78
76726;BME280;65651;53.154;17.916;2024-03-23T09:59:01;99712.70;;;6.68;87.81
76726;BME280;65651;53.154;17.916;2024-03-23T10:01:30;99702.73;;;6.70;87.46
76726;BME280;65651;53.154;17.916;2024-03-23T10:03:58;99702.30;;;6.71;87.45
76726;BME280;65651;53.154;17.916;2024-03-23T10:06:25;99699.27;;;6.72;87.46
76726;BME280;65651;53.154;17.916;2024-03-23T10:08:52;99705.98;;;6.76;87.17
76726;BME280;65651;53.154;17.916;2024-03-23T10:11:23;99707.75;;;6.78;87.44
76726;BME280;65651;53.154;17.916;2024-03-23T10:13:54;99701.59;;;6.80;87.54
76726;BME280;65651;53.154;17.916;2024-03-23T10:16:24;99703.46;;;6.82;87.10
76726;BME280;65651;53.154;17.916;2024-03-23T10:18:51;99695.58;;;6.78;86.82
76726;BME280;65651;53.154;17.916;2024-03-23T10:21:18;99696.86;;;6.80;87.20
76726;BME280;65651;53.154;17.916;2024-03-23T10:23:46;99692.73;;;6.78;87.22
76726;BME280;65651;53.154;17.916;2024-03-23T10:26:20;99684.36;;;6.72;86.93
76726;BME280;65651;53.154;17.916;2024-03-23T10:28:59;99681.08;;;6.75;87.27
76726;BME280;65651;53.154;17.916;2024-03-23T10:31:28;99681.89;;;6.78;86.98
76726;BME280;65651;53.154;17.916;2024-03-23T10:33:55;99673.77;;;6.77;87.08
76726;BME280;65651;53.154;17.916;2024-03-23T10:36:24;99677.15;;;6.78;86.90
76726;BME280;65651;53.154;17.916;2024-03-23T10:38:55;99679.61;;;6.81;86.67
76726;BME280;65651;53.154;17.916;2024-03-23T10:41:22;99670.55;;;6.80;86.93
76726;BME280;65651;53.154;17.916;2024-03-23T10:43:53;99672.64;;;6.81;86.77
76726;BME280;65651;53.154;17.916;2024-03-23T10:46:23;99674.08;;;6.81;86.78
76726;BME280;65651;53.154;17.916;2024-03-23T10:48:52;99666.63;;;6.79;86.74
76726;BME280;65651;53.154;17.916;2024-03-23T10:51:21;99661.67;;;6.76;87.08
76726;BME280;65651;53.154;17.916;2024-03-23T10:53:48;99659.35;;;6.72;86.78
76726;BME280;65651;53.154;17.916;2024-03-23T10:56:17;99650.10;;;6.74;86.30
76726;BME280;65651;53.154;17.916;2024-03-23T10:58:47;99640.03;;;6.75;86.80
76726;BME280;65651;53.154;17.916;2024-03-23T11:01:16;99635.93;;;6.79;86.80
76726;BME280;65651;53.154;17.916;2024-03-23T11:03:46;99631.45;;;6.85;86.66
76726;BME280;65651;53.154;17.916;2024-03-23T11:06:49;99624.08;;;6.92;86.44
76726;BME280;65651;53.154;17.916;2024-03-23T11:14:52;99608.64;;;7.12;86.15
76726;BME280;65651;53.154;17.916;2024-03-23T11:17:22;99596.10;;;7.18;86.28
76726;BME280;65651;53.154;17.916;2024-03-23T11:26:38;99606.19;;;7.28;86.15
76726;BME280;65651;53.154;17.916;2024-03-23T11:29:09;99605.88;;;7.28;86.22
76726;BME280;65651;53.154;17.916;2024-03-23T11:31:38;99601.42;;;7.29;86.04
76726;BME280;65651;53.154;17.916;2024-03-23T11:34:09;99598.95;;;7.22;85.63
76726;BME280;65651;53.154;17.916;2024-03-23T11:36:36;99596.29;;;7.23;85.71
76726;BME280;65651;53.154;17.916;2024-03-23T11:39:18;99588.38;;;7.24;85.81
76726;BME280;65651;53.154;17.916;2024-03-23T11:41:53;99592.19;;;7.18;85.76
76726;BME280;65651;53.154;17.916;2024-03-23T11:44:25;99586.88;;;7.09;85.78
76726;BME280;65651;53.154;17.916;2024-03-23T11:46:53;99582.54;;;6.98;85.87
76726;BME280;65651;53.154;17.916;2024-03-23T11:49:26;99582.14;;;6.91;85.90
76726;BME280;65651;53.154;17.916;2024-03-23T11:51:56;99575.23;;;6.87;85.95
76726;BME280;65651;53.154;17.916;2024-03-23T11:54:27;99572.58;;;6.83;85.67
76726;BME280;65651;53.154;17.916;2024-03-23T11:57:01;99572.38;;;6.76;85.58
76726;BME280;65651;53.154;17.916;2024-03-23T11:59:32;99568.13;;;6.68;85.81
76726;BME280;65651;53.154;17.916;2024-03-23T12:01:59;99561.23;;;6.67;85.89
76726;BME280;65651;53.154;17.916;2024-03-23T12:04:29;99556.60;;;6.69;85.76
76726;BME280;65651;53.154;17.916;2024-03-23T12:07:22;99550.84;;;6.68;86.20
76726;BME280;65651;53.154;17.916;2024-03-23T12:10:05;99534.88;;;6.71;86.30
76726;BME280;65651;53.154;17.916;2024-03-23T12:12:35;99522.67;;;6.73;86.39
76726;BME280;65651;53.154;17.916;2024-03-23T12:15:03;99518.58;;;6.81;86.13
76726;BME280;65651;53.154;17.916;2024-03-23T12:17:35;99524.12;;;6.82;85.99
76726;BME280;65651;53.154;17.916;2024-03-23T12:20:02;99526.84;;;6.76;86.71
76726;BME280;65651;53.154;17.916;2024-03-23T12:23:04;99535.27;;;6.70;86.63
76726;BME280;65651;53.154;17.916;2024-03-23T12:25:49;99550.89;;;6.60;86.55
76726;BME280;65651;53.154;17.916;2024-03-23T12:30:59;99552.83;;;6.43;86.71
76726;BME280;65651;53.154;17.916;2024-03-23T12:33:26;99541.89;;;6.38;86.92
76726;BME280;65651;53.154;17.916;2024-03-23T12:35:53;99525.95;;;6.36;86.67
76726;BME280;65651;53.154;17.916;2024-03-23T12:38:20;99514.61;;;6.31;86.81
76726;BME280;65651;53.154;17.916;2024-03-23T12:40:50;99503.80;;;6.27;86.81
76726;BME280;65651;53.154;17.916;2024-03-23T12:43:18;99503.98;;;6.23;86.99
76726;BME280;65651;53.154;17.916;2024-03-23T12:45:48;99510.48;;;6.16;87.06
76726;BME280;65651;53.154;17.916;2024-03-23T12:48:18;99502.27;;;6.09;87.19
76726;BME280;65651;53.154;17.916;2024-03-23T12:50:45;99496.79;;;6.01;87.47
76726;BME280;65651;53.154;17.916;2024-03-23T12:53:12;99495.13;;;5.98;87.20
76726;BME280;65651;53.154;17.916;2024-03-23T12:55:39;99489.23;;;5.94;87.42
76726;BME280;65651;53.154;17.916;2024-03-23T12:58:05;99473.83;;;5.91;87.48
76726;BME280;65651;53.154;17.916;2024-03-23T13:00:34;99451.88;;;5.86;87.44
76726;BME280;65651;53.154;17.916;2024-03-23T13:09:56;99434.10;;;5.89;87.86
76726;BME280;65651;53.154;17.916;2024-03-23T13:12:25;99448.98;;;5.88;87.92
76726;BME280;65651;53.154;17.916;2024-03-23T13:14:53;99455.17;;;5.85;88.14
76726;BME280;65651;53.154;17.916;2024-03-23T13:17:19;99460.73;;;5.83;87.85
76726;BME280;65651;53.154;17.916;2024-03-23T13:19:46;99460.70;;;5.79;88.09
76726;BME280;65651;53.154;17.916;2024-03-23T13:22:15;99464.52;;;5.77;88.05
76726;BME280;65651;53.154;17.916;2024-03-23T13:24:42;99462.30;;;5.72;88.18
76726;BME280;65651;53.154;17.916;2024-03-23T13:27:12;99463.27;;;5.67;87.93
76726;BME280;65651;53.154;17.916;2024-03-23T13:29:38;99459.02;;;5.61;88.04
76726;BME280;65651;53.154;17.916;2024-03-23T13:32:06;99460.08;;;5.55;87.94
76726;BME280;65651;53.154;17.916;2024-03-23T13:34:35;99465.17;;;5.52;88.21
76726;BME280;65651;53.154;17.916;2024-03-23T13:37:02;99469.23;;;5.47;88.02
76726;BME280;65651;53.154;17.916;2024-03-23T13:39:30;99469.45;;;5.39;88.15
76726;BME280;65651;53.154;17.916;2024-03-23T13:41:57;99473.22;;;5.31;88.03
76726;BME280;65651;53.154;17.916;2024-03-23T13:44:24;99478.19;;;5.21;88.07
76726;BME280;65651;53.154;17.916;2024-03-23T13:46:50;99478.52;;;5.18;87.96
76726;BME280;65651;53.154;17.916;2024-03-23T13:51:54;99480.72;;;5.03;87.74
76726;BME280;65651;53.154;17.916;2024-03-23T13:54:21;99493.70;;;4.95;87.83
76726;BME280;65651;53.154;17.916;2024-03-23T13:56:52;99510.42;;;4.87;87.94
76726;BME280;65651;53.154;17.916;2024-03-23T13:59:19;99522.20;;;4.79;87.88
76726;BME280;65651;53.154;17.916;2024-03-23T14:01:47;99523.90;;;4.70;87.88
76726;BME280;65651;53.154;17.916;2024-03-23T14:04:15;99520.11;;;4.60;87.77
76726;BME280;65651;53.154;17.916;2024-03-23T14:06:46;99517.90;;;4.53;87.87
76726;BME280;65651;53.154;17.916;2024-03-23T14:09:14;99537.75;;;4.49;87.91
76726;BME280;65651;53.154;17.916;2024-03-23T14:11:42;99548.80;;;4.45;87.83
76726;BME280;65651;53.154;17.916;2024-03-23T14:14:10;99550.60;;;4.43;87.89
76726;BME280;65651;53.154;17.916;2024-03-23T14:16:37;99554.23;;;4.40;87.97
76726;BME280;65651;53.154;17.916;2024-03-23T14:19:04;99563.05;;;4.43;88.23
76726;BME280;65651;53.154;17.916;2024-03-23T14:21:37;99564.48;;;4.38;87.93
76726;BME280;65651;53.154;17.916;2024-03-23T14:24:05;99558.65;;;4.40;87.94
76726;BME280;65651;53.154;17.916;2024-03-23T14:26:32;99553.33;;;4.40;87.89
76726;BME280;65651;53.154;17.916;2024-03-23T14:29:03;99553.48;;;4.42;87.98